Flight Track Log - Related Links

Times and Time Zones

All times are in EDT time to prevent confusion due to time zone crossing. See the N97FG flight status page for this flight to view local times or setup timezone preferences in your user account.

Time Position Orientation Groundspeed Altitude Reporting Facility
EDT Latitude Longitude Course Direction KTS MPH feet Rate Location/Type
Sun 06:35:12 PM 40.6333 -73.7000 331° Northwest 202 232 4,800  Level New York TRACON
Sun 06:36:12 PM 40.6500 -73.6167 75° East 279 321 7,400 2,950 Climbing New York TRACON
Sun 06:37:12 PM 40.7167 -73.5667 30° Northeast 291 335 10,700 2,628 Climbing New York TRACON
Sun 06:38:13 PM 40.8167 -73.5333 14° North 344 396 12,700 2,182 Climbing New York TRACON
Sun 06:39:13 PM 40.9000 -73.5667 343° North 363 418 15,100 2,150 Climbing New York TRACON
Sun 06:40:00 PM 41.1257 -74.1442 331° Northwest  Level FlightAware Approximate
Sun 06:40:13 PM 40.9667 -73.6667 311° West 369 425 17,000  Level New York TRACON
Sun 06:41:13 PM 41.0333 -73.7833 307° West 418 481 17,000  Level New York TRACON
Sun 06:42:18 PM 41.1333 -73.9167 315° West 446 513 17,000 43 Level New York TRACON
Sun 06:43:31 PM 41.2139 -74.0533 308° West 461 531 17,100 1,438 Climbing New York Center
Sun 06:45:30 PM 41.3753 -74.3017 311° West 435 501 21,600 2,179 Climbing New York Center
Sun 06:46:30 PM 41.4403 -74.4267 305° West 421 484 23,600 1,983 Climbing New York Center
Sun 06:47:31 PM 41.4986 -74.5575 301° West 416 479 25,600 1,918 Climbing New York Center
Sun 06:48:32 PM 41.5447 -74.6792 297° West 410 472 27,500 1,765 Climbing New York Center
Sun 06:49:30 PM 41.6028 -74.8072 301° West 410 472 29,100 1,525 Climbing New York Center
Sun 06:51:00 PM 41.6725 -74.9949 304° West  Level FlightAware Approximate
Sun 06:52:32 PM 41.7758 -75.2128 300° West 415 478 33,600  Level New York Center
Sun 06:53:29 PM 41.8350 -75.3531 300° West 420 483 35,100 1,436 Climbing New York Center
Sun 06:54:29 PM 41.8922 -75.4881 300° West 420 483 36,400 1,141 Climbing New York Center
Sun 06:56:12 PM 41.9833 -75.7167 298° West 430 495 38,200 1,031 Climbing Toronto Center
Sun 06:57:12 PM 42.0500 -75.8667 301° West 430 495 39,200 1,000 Climbing Toronto Center
Sun 06:58:00 PM 42.0322 -75.8543 300° West  Level FlightAware Approximate
Sun 06:58:12 PM 42.1000 -76.0000 297° West 430 495 40,200  Level Toronto Center
Sun 06:59:12 PM 42.1667 -76.1333 304° West 420 483 41,200 875 Climbing Toronto Center
Sun 06:59:48 PM 42.1908 -76.2417 287° West 424 488 41,600 1,000 Climbing Cleveland Center
Sun 07:00:48 PM 42.2425 -76.4008 294° West 429 494 42,800 700 Climbing Cleveland Center
Sun 07:01:48 PM 42.2872 -76.5411 293° West 424 488 43,000 67 Climbing Cleveland Center
Sun 07:03:48 PM 42.3828 -76.8442 293° West 435 501 43,000  Level Cleveland Center
Sun 07:04:12 PM 42.4000 -76.8833 301° West 450 518 43,000  Level Toronto Center
Sun 07:04:48 PM 42.4317 -76.9989 290° West 442 509 43,000  Level Cleveland Center
Sun 07:05:48 PM 42.4803 -77.1567 293° West 447 514 43,000  Level Cleveland Center
Sun 07:06:48 PM 42.5286 -77.3119 293° West 447 514 43,000  Level Cleveland Center
Sun 07:07:48 PM 42.5653 -77.4342 292° West 447 514 43,000  Level Cleveland Center
Sun 07:08:48 PM 42.6222 -77.6147 293° West 455 524 43,000 -50 Level Cleveland Center
Sun 07:09:48 PM 42.6678 -77.7706 292° West 455 524 42,900  Descending Cleveland Center
Sun 07:10:48 PM 42.7172 -77.9267 293° West 455 524 43,000 50 Climbing Cleveland Center
Sun 07:11:48 PM 42.7622 -78.0775 292° West 449 517 43,000  Level Cleveland Center
Sun 07:12:48 PM 42.8094 -78.2314 293° West 444 511 43,000  Level Cleveland Center
Sun 07:13:48 PM 42.8542 -78.3856 292° West 444 511 43,000  Level Cleveland Center
Sun 07:14:48 PM 42.8986 -78.5428 291° West 444 511 43,000  Level Cleveland Center
Sun 07:15:48 PM 42.9328 -78.7031 286° West 449 517 43,000  Level Cleveland Center
Sun 07:16:48 PM 42.9417 -78.8758 274° West 449 517 43,000  Level Cleveland Center
Sun 07:17:12 PM 42.9333 -78.9500 261° West 450 518 43,000 -71 Level Toronto Center
Sun 07:18:12 PM 42.9500 -79.1167 278° West 450 518 42,900 -1,100 Descending Toronto Center
Sun 07:19:12 PM 42.9500 -79.2667 270° West 440 506 40,800 -2,300 Descending Toronto Center
Sun 07:20:12 PM 42.9667 -79.4333 278° West 430 495 38,300 -2,450 Descending Toronto Center
Sun 07:21:12 PM 42.9667 -79.5833 270° West 430 495 35,900 -2,100 Descending Toronto Center
Sun 07:22:12 PM 42.9833 -79.7667 277° West 450 518 34,100 -1,600 Descending Toronto Center
Sun 07:23:12 PM 42.9833 -79.9500 270° West 450 518 32,700 -1,550 Descending Toronto Center
Sun 07:24:12 PM 42.9833 -80.1167 270° West 450 518 31,000 -1,800 Descending Toronto Center
Sun 07:25:12 PM 43.0000 -80.3000 277° West 450 518 29,100 -1,850 Descending Toronto Center
Sun 07:26:12 PM 43.0000 -80.4500 270° West 450 518 27,300 -1,800 Descending Toronto Center
Sun 07:27:12 PM 43.0167 -80.6167 278° West 440 506 25,500 -1,650 Descending Toronto Center
Sun 07:28:12 PM 43.0167 -80.7667 270° West 440 506 24,000 -700 Descending Toronto Center
Sun 07:29:12 PM 43.0167 -80.9500 270° West 450 518 24,100 -750 Climbing Toronto Center
Sun 07:30:12 PM 43.0167 -81.1333 270° West 450 518 22,500 -1,900 Descending Toronto Center
Sun 07:31:12 PM 42.9833 -81.3000 255° West 460 529 20,300 -2,100 Descending Toronto Center
Sun 07:32:12 PM 42.9500 -81.4500 253° West 450 518 18,300 -2,000 Descending Toronto Center
Sun 07:33:12 PM 42.9167 -81.6167 255° West 430 495 16,300 -2,050 Descending Toronto Center
Sun 07:34:12 PM 42.8667 -81.7667 246° West 450 518 14,200 -2,083 Descending Toronto Center
Sun 07:35:13 PM 42.8167 -81.9333 248° West 430 495 12,100 -1,100 Descending Toronto Center
Sun 07:36:12 PM 42.7833 -82.0667 251° West 410 472 12,000 -353 Descending Toronto Center
Sun 07:37:12 PM 42.7736 -82.2322 265° West 420 483 11,400 -667 Descending Cleveland Center
Sun 07:39:12 PM 42.7586 -82.5175 266° West 393 452 10,000 -488 Descending Cleveland Center
Sun 07:40:04 PM 42.7544 -82.6389 267° West 337 388 10,000 -900 Level Cleveland Center
Sun 07:41:12 PM 42.7503 -82.7489 267° West 318 366 8,200 -1,746 Descending Cleveland Center
Sun 07:42:18 PM 42.7417 -82.8817 265° West 279 321 6,100 -1,039 Descending Cleveland Center
Sun 07:43:19 PM 42.7353 -82.9889 265° West 290 334 6,000 -148 Descending Cleveland Center
Sun 07:44:20 PM 42.7350 -83.0933 270° West 283 326 5,800 -843 Descending Cleveland Center
Sun 07:45:20 PM 42.7367 -83.2064 271° West 277 319 4,300 -964 Descending Cleveland Center
Sun 07:46:12 PM 42.7411 -83.2803 275° West 283 326 4,000 -269 Descending Cleveland Center
Sun 07:46:27 PM 42.7406 -83.3142 269° West 234 269 4,000 -1,023 Level Cleveland Center
Sun 07:47:40 PM 42.7297 -83.4183 262° West 237 273 2,500 -716 Descending Cleveland Center
Sun 07:48:41 PM 42.7133 -83.4853 252° West 156 180 2,400 -273 Descending Cleveland Center
Sun 07:49:30 PM 42.6819 -83.4867 182° South 137 158 2,000 -490 Descending Cleveland Center
Sun 07:51:00 PM 42.6656 -83.4205 251° West  Level Estimated
Sun 07:58:00 PM 42.6656 -83.4205 251° West  Level Estimated
Sun 07:59:00 PM 42.6656 -83.4205 251° West  Level Estimated

Login

Don't have an account? Register now (free) for customized features, flight alerts, and more!